Time;durP1;ratioP1;P1;durP2;ratioP2;P2;SDS_P1;SDS_P2;PMS_P1;PMS_P2;Temp;Humidity;BMP_temperature;BMP_pressure;BME280_temperature;BME280_humidity;BME280_pressure;Samples;Min_cycle;Max_cycle;Signal;HPM_P1;HPM_P2
2021/09/01 00:00:21;;;;;;;23.93;8.90;;;;;;;12.05;100.00;102117.84;5019180;28;20516;-85
2021/09/01 00:02:46;;;;;;;17.30;8.17;;;;;;;12.04;100.00;102119.69;5018511;28;20470;-85
2021/09/01 00:05:12;;;;;;;26.13;11.97;;;;;;;12.16;100.00;102120.41;5022032;28;20040;-85
2021/09/01 00:07:38;;;;;;;23.60;10.57;;;;;;;12.18;100.00;102122.94;5039447;28;20033;-85
2021/09/01 00:10:05;;;;;;;17.02;8.02;;;;;;;12.17;100.00;102129.28;5038733;28;20433;-85
2021/09/01 00:12:31;;;;;;;22.40;8.73;;;;;;;12.18;100.00;102118.44;5039115;28;20041;-85
2021/09/01 00:14:56;;;;;;;20.80;9.93;;;;;;;12.29;100.00;102132.66;5021877;28;20091;-85
2021/09/01 00:17:22;;;;;;;30.50;12.27;;;;;;;12.25;100.00;102126.75;5021658;28;20066;-85
2021/09/01 00:19:48;;;;;;;27.52;10.90;;;;;;;12.43;100.00;102129.56;5036449;28;20025;-84
2021/09/01 00:22:13;;;;;;;28.63;10.53;;;;;;;12.34;100.00;102131.28;5036531;28;20032;-85
2021/09/01 00:24:39;;;;;;;28.53;12.50;;;;;;;12.34;100.00;102135.75;5035761;28;20036;-84
2021/09/01 00:27:04;;;;;;;29.40;12.10;;;;;;;12.26;100.00;102139.16;5019940;28;20029;-84
2021/09/01 00:29:30;;;;;;;27.97;12.87;;;;;;;12.22;100.00;102140.41;5036618;28;20029;-84
2021/09/01 00:31:55;;;;;;;24.63;11.07;;;;;;;12.17;100.00;102150.69;5036164;28;20125;-86
2021/09/01 00:34:20;;;;;;;23.53;10.57;;;;;;;12.23;100.00;102145.63;5036502;28;20052;-84
2021/09/01 00:36:46;;;;;;;26.60;9.87;;;;;;;12.09;100.00;102138.00;5037074;28;20033;-84
2021/09/01 00:39:11;;;;;;;28.87;11.57;;;;;;;12.08;100.00;102141.69;5036775;28;20036;-85
2021/09/01 00:41:36;;;;;;;25.00;10.57;;;;;;;11.98;100.00;102147.00;5053278;28;20037;-85
2021/09/01 00:44:23;;;;;;;36.60;12.63;;;;;;;11.99;100.00;102142.50;5020751;28;20118;-84
2021/09/01 00:46:52;;;;;;;21.17;10.60;;;;;;;11.99;100.00;102134.47;5036694;28;20036;-84
2021/09/01 00:49:18;;;;;;;37.85;10.25;;;;;;;11.92;100.00;102133.34;5037421;28;20033;-85
2021/09/01 00:51:45;;;;;;;28.55;11.75;;;;;;;11.94;100.00;102132.22;5036287;28;20514;-85
2021/09/01 00:54:17;;;;;;;21.52;10.20;;;;;;;11.89;100.00;102128.25;5020114;28;20131;-85
2021/09/01 00:56:45;;;;;;;34.17;12.48;;;;;;;11.77;100.00;102117.63;5040211;28;20421;-84
2021/09/01 00:59:15;;;;;;;33.40;12.60;;;;;;;11.86;100.00;102126.66;5037209;28;20084;-83
2021/09/01 01:01:43;;;;;;;39.75;15.57;;;;;;;11.91;100.00;102137.81;5035500;28;20073;-84
2021/09/01 01:04:08;;;;;;;37.88;14.65;;;;;;;11.97;100.00;102139.13;5035309;28;20044;-84
2021/09/01 01:06:34;;;;;;;26.03;12.37;;;;;;;11.89;100.00;102131.75;5019171;28;20036;-84
2021/09/01 01:09:00;;;;;;;24.93;10.87;;;;;;;11.89;100.00;102130.91;5035966;28;20032;-84
2021/09/01 01:11:25;;;;;;;29.50;11.15;;;;;;;11.79;100.00;102131.69;5035935;28;20064;-84
2021/09/01 01:13:51;;;;;;;24.40;12.13;;;;;;;11.78;100.00;102151.44;5036289;28;20563;-85
2021/09/01 01:16:17;;;;;;;;;;;;;;;11.75;100.00;102153.50;5045716;28;20082;-84
2021/09/01 01:18:47;;;;;;;;;;;;;;;11.82;100.00;102154.66;5056553;28;19912;-84
2021/09/01 01:21:17;;;;;;;38.65;15.90;;;;;;;11.83;100.00;102148.34;5042249;28;19916;-85
2021/09/01 01:23:42;;;;;;;42.00;15.38;;;;;;;11.92;100.00;102150.25;5088293;28;20132;-85
2021/09/01 01:26:08;;;;;;;43.97;17.43;;;;;;;11.95;100.00;102146.44;5060922;28;20048;-84
2021/09/01 01:28:33;;;;;;;44.28;16.65;;;;;;;12.05;100.00;102149.97;5074206;28;20036;-84
2021/09/01 01:30:59;;;;;;;43.43;17.87;;;;;;;12.14;100.00;102151.81;5063147;28;20037;-85
2021/09/01 01:33:24;;;;;;;47.77;17.63;;;;;;;12.18;100.00;102153.25;5093660;28;20017;-85
2021/09/01 01:35:49;;;;;;;40.37;17.97;;;;;;;12.18;100.00;102147.88;5081519;28;20044;-84
2021/09/01 01:38:19;;;;;;;42.87;18.83;;;;;;;12.24;100.00;102152.69;5057948;28;20038;-85
2021/09/01 01:40:46;;;;;;;38.17;17.80;;;;;;;12.20;100.00;102153.94;5075242;28;20131;-85
2021/09/01 01:43:13;;;;;;;71.97;22.58;;;;;;;12.27;100.00;102150.69;5075096;28;20020;-84
2021/09/01 01:45:44;;;;;;;40.47;19.08;;;;;;;12.22;100.00;102161.81;5057771;28;20029;-85
2021/09/01 01:48:11;;;;;;;39.47;19.55;;;;;;;12.32;100.00;102167.22;5073513;28;20070;-85
2021/09/01 01:50:40;;;;;;;44.25;21.55;;;;;;;12.29;100.00;102160.31;5056835;28;20016;-85
2021/09/01 01:53:06;;;;;;;41.38;21.48;;;;;;;12.34;100.00;102152.69;5072707;28;20040;-84
2021/09/01 01:55:32;;;;;;;;;;;;;;;12.37;100.00;102156.94;5057141;28;20452;-85
2021/09/01 01:57:57;;;;;;;;;;;;;;;12.35;100.00;102156.22;5057015;28;19909;-85
2021/09/01 02:00:23;;;;;;;64.20;21.63;;;;;;;12.30;100.00;102162.00;5056432;28;20399;-85
2021/09/01 02:02:48;;;;;;;48.13;20.75;;;;;;;12.33;100.00;102163.53;5072932;28;20032;-85
2021/09/01 02:05:14;;;;;;;54.60;21.53;;;;;;;12.31;100.00;102161.00;5056400;28;20044;-85
2021/09/01 02:07:39;;;;;;;45.07;21.57;;;;;;;12.34;100.00;102167.91;5056490;28;20033;-85
2021/09/01 02:10:09;;;;;;;38.07;19.67;;;;;;;12.37;100.00;102162.28;5056107;28;20032;-85
2021/09/01 02:12:36;;;;;;;51.85;19.75;;;;;;;12.36;100.00;102155.22;5057201;28;20044;-85
2021/09/01 02:15:04;;;;;;;59.05;21.63;;;;;;;12.32;100.00;102154.66;5072349;28;20041;-85
2021/09/01 02:17:30;;;;;;;48.40;21.65;;;;;;;12.30;100.00;102155.78;5072223;28;20119;-85
2021/09/01 02:19:55;;;;;;;49.43;22.27;;;;;;;12.34;100.00;102152.69;5072486;28;20499;-85
2021/09/01 02:22:22;;;;;;;42.05;20.15;;;;;;;12.46;100.00;102161.44;5055326;28;20295;-85
2021/09/01 02:24:47;;;;;;;;;;;;;;;12.49;100.00;102166.50;5058646;28;20040;-85
2021/09/01 02:27:13;;;;;;;;;;;;;;;12.53;100.00;102165.25;5056259;28;19920;-85
2021/09/01 02:29:38;;;;;;;55.33;21.30;;;;;;;12.47;100.00;102155.09;5038563;28;19916;-85
2021/09/01 02:32:05;;;;;;;60.45;20.70;;;;;;;12.39;100.00;102155.81;5071716;28;20035;-84
2021/09/01 02:34:31;;;;;;;40.95;20.35;;;;;;;12.39;100.00;102154.97;5071976;28;20405;-85
2021/09/01 02:36:56;;;;;;;39.65;19.25;;;;;;;12.44;100.00;102155.38;5072063;28;20036;-85
2021/09/01 02:39:22;;;;;;;42.57;19.80;;;;;;;12.45;100.00;102149.91;5056187;28;20040;-85
2021/09/01 02:41:47;;;;;;;32.13;18.27;;;;;;;12.51;100.00;102143.13;5072528;28;20024;-84
2021/09/01 02:44:13;;;;;;;41.83;17.20;;;;;;;12.48;100.00;102143.41;5055372;28;20096;-84
2021/09/01 02:46:38;;;;;;;34.33;17.60;;;;;;;12.44;100.00;102142.00;5054985;28;20105;-85
2021/09/01 02:49:03;;;;;;;41.13;19.07;;;;;;;12.33;100.00;102151.00;5055013;28;20021;-85
2021/09/01 02:51:29;;;;;;;36.90;20.03;;;;;;;12.34;100.00;102146.47;5054940;28;20039;-85
2021/09/01 02:53:54;;;;;;;33.33;17.60;;;;;;;12.34;100.00;102152.69;5038065;28;20048;-84
2021/09/01 02:56:19;;;;;;;40.03;19.20;;;;;;;12.25;100.00;102154.38;5054258;28;20029;-85
2021/09/01 02:58:45;;;;;;;40.40;20.97;;;;;;;12.26;100.00;102152.53;5054596;28;20037;-85
2021/09/01 03:01:10;;;;;;;51.67;22.67;;;;;;;12.13;100.00;102155.50;5054429;28;20045;-85
2021/09/01 03:03:35;;;;;;;32.03;17.73;;;;;;;12.18;100.00;102152.41;5070582;28;20081;-84
2021/09/01 03:06:01;;;;;;;38.30;19.43;;;;;;;12.15;100.00;102153.53;5070819;28;20032;-85
2021/09/01 03:08:26;;;;;;;40.70;19.83;;;;;;;12.01;100.00;102146.75;5054515;28;20033;-85
2021/09/01 03:10:51;;;;;;;38.77;19.87;;;;;;;12.08;100.00;102144.34;5055014;28;20385;-85
2021/09/01 03:13:17;;;;;;;30.50;16.87;;;;;;;12.17;100.00;102156.03;5053995;28;20397;-85
2021/09/01 03:15:42;;;;;;;44.87;20.40;;;;;;;12.08;100.00;102141.69;5053992;28;20041;-85
2021/09/01 03:18:08;;;;;;;36.57;18.73;;;;;;;12.06;100.00;102149.00;5053152;28;20031;-85
2021/09/01 03:20:33;;;;;;;44.33;19.50;;;;;;;12.07;100.00;102148.00;5070615;28;20520;-84
2021/09/01 03:22:58;;;;;;;35.23;18.57;;;;;;;12.18;100.00;102144.38;5037348;28;20111;-84
2021/09/01 03:25:24;;;;;;;44.83;21.10;;;;;;;12.20;100.00;102150.44;5070725;28;20812;-84
2021/09/01 03:27:49;;;;;;;43.05;20.65;;;;;;;12.21;100.00;102158.31;5053685;28;20063;-85
2021/09/01 03:30:15;;;;;;;37.50;19.93;;;;;;;12.12;100.00;102155.63;5054066;28;20130;-85
2021/09/01 03:32:40;;;;;;;54.67;20.97;;;;;;;12.07;100.00;102152.50;5053522;28;20484;-84
2021/09/01 03:35:07;;;;;;;36.45;19.70;;;;;;;12.07;100.00;102153.34;5070625;28;20389;-84
2021/09/01 03:37:32;;;;;;;57.42;21.45;;;;;;;12.11;100.00;102152.09;5072562;28;20486;-85
2021/09/01 03:39:57;;;;;;;46.00;21.77;;;;;;;12.10;100.00;102150.41;5057473;28;20127;-84
2021/09/01 03:42:23;;;;;;;40.73;21.23;;;;;;;12.13;100.00;102154.66;5057589;28;20517;-84
2021/09/01 03:44:49;;;;;;;51.90;21.15;;;;;;;12.12;100.00;102153.78;5074130;28;20117;-83
2021/09/01 03:47:14;;;;;;;46.87;21.53;;;;;;;12.13;100.00;102157.34;5073164;28;20028;-84
2021/09/01 03:49:40;;;;;;;38.03;21.27;;;;;;;12.22;100.00;102159.16;5073586;28;20047;-86
2021/09/01 03:52:05;;;;;;;48.67;21.07;;;;;;;12.15;100.00;102158.88;5056472;28;20032;-84
2021/09/01 03:54:30;;;;;;;41.03;20.87;;;;;;;12.18;100.00;102161.28;5073328;28;20028;-84
2021/09/01 03:56:56;;;;;;;50.77;21.50;;;;;;;12.14;100.00;102153.66;5056617;28;20043;-83
2021/09/01 03:59:21;;;;;;;34.67;18.83;;;;;;;12.19;100.00;102159.44;5056399;28;20039;-83
2021/09/01 04:01:47;;;;;;;57.40;23.73;;;;;;;12.15;100.00;102158.88;5056849;28;20086;-84
2021/09/01 04:04:12;;;;;;;56.78;23.85;;;;;;;12.07;100.00;102160.53;5056312;28;20029;-84
2021/09/01 04:06:37;;;;;;;58.80;23.70;;;;;;;12.07;100.00;102166.75;5056258;28;20036;-84
2021/09/01 04:09:03;;;;;;;58.57;24.40;;;;;;;12.07;100.00;102163.22;5056593;28;20035;-83
2021/09/01 04:11:28;;;;;;;75.43;23.77;;;;;;;12.09;100.00;102167.44;5056257;28;20116;-83
2021/09/01 04:13:54;;;;;;;45.75;22.50;;;;;;;12.08;100.00;102173.81;5072925;28;20866;-84
2021/09/01 04:16:19;;;;;;;55.10;24.47;;;;;;;12.11;100.00;102168.16;5056008;28;20029;-86
2021/09/01 04:18:45;;;;;;;51.10;23.93;;;;;;;12.12;100.00;102174.38;5056272;28;20025;-85
2021/09/01 04:21:11;;;;;;;46.60;24.02;;;;;;;12.14;100.00;102167.88;5073440;28;20497;-84
2021/09/01 04:23:36;;;;;;;42.50;21.97;;;;;;;12.16;100.00;102167.75;5072940;28;20149;-83
2021/09/01 04:26:02;;;;;;;41.60;22.83;;;;;;;12.16;100.00;102165.91;5072769;28;20393;-83
2021/09/01 04:28:28;;;;;;;51.25;25.10;;;;;;;12.15;100.00;102174.94;5072934;28;20040;-83
2021/09/01 04:30:53;;;;;;;49.50;22.20;;;;;;;12.14;100.00;102165.19;5073071;28;20032;-84
2021/09/01 04:33:19;;;;;;;45.47;22.07;;;;;;;12.18;100.00;102163.94;5072320;28;20107;-83
2021/09/01 04:35:44;;;;;;;47.13;22.23;;;;;;;12.18;100.00;102161.28;5055431;28;20036;-84
2021/09/01 04:38:10;;;;;;;41.20;21.50;;;;;;;12.14;100.00;102167.03;5072899;28;20032;-85
2021/09/01 04:40:35;;;;;;;49.07;22.47;;;;;;;12.20;100.00;102171.84;5073489;28;20047;-85
2021/09/01 04:43:00;;;;;;;62.00;24.40;;;;;;;12.19;100.00;102176.34;5056823;28;20032;-83
2021/09/01 04:45:26;;;;;;;55.13;25.37;;;;;;;12.24;100.00;102178.59;5058956;28;20377;-83
2021/09/01 04:47:51;;;;;;;50.93;23.83;;;;;;;12.09;100.00;102180.84;5056806;28;20040;-84
2021/09/01 04:50:16;;;;;;;60.83;23.63;;;;;;;12.13;100.00;102170.72;5055256;28;20496;-83
2021/09/01 04:52:42;;;;;;;50.83;23.57;;;;;;;12.13;100.00;102181.44;5055898;28;20044;-83
2021/09/01 04:55:08;;;;;;;53.53;24.23;;;;;;;12.23;100.00;102182.28;5072545;28;20029;-83
2021/09/01 04:57:34;;;;;;;;;;;;;;;12.18;100.00;102182.69;5072600;28;20123;-84
2021/09/01 04:59:59;;;;;;;;;;;;;;;12.31;100.00;102186.94;5072784;28;19955;-85
2021/09/01 05:02:25;;;;;;;56.33;23.03;;;;;;;12.24;100.00;102179.47;5039006;28;19920;-85
2021/09/01 05:04:50;;;;;;;59.27;22.73;;;;;;;12.23;100.00;102184.97;5056543;28;20098;-84
2021/09/01 05:07:16;;;;;;;50.30;23.93;;;;;;;12.20;100.00;102182.56;5056283;28;20060;-84
2021/09/01 05:09:41;;;;;;;57.92;24.05;;;;;;;12.23;100.00;102182.28;5072295;28;20076;-84
2021/09/01 05:12:06;;;;;;;52.17;23.47;;;;;;;12.33;100.00;102176.94;5072057;28;20045;-85
2021/09/01 05:14:32;;;;;;;62.97;25.37;;;;;;;12.31;100.00;102184.25;5039164;28;20493;-84
2021/09/01 05:16:57;;;;;;;49.53;22.77;;;;;;;12.40;100.00;102194.97;5055215;28;20036;-83
2021/09/01 05:19:23;;;;;;;57.60;25.87;;;;;;;12.45;100.00;102195.44;5055637;28;20024;-83
2021/09/01 05:21:53;;;;;;;53.17;24.42;;;;;;;12.36;100.00;102195.38;5068727;28;20039;-84
2021/09/01 05:24:35;;;;;;;46.97;23.10;;;;;;;12.45;100.00;102191.88;5070030;28;20048;-83
2021/09/01 05:27:08;;;;;;;40.58;22.65;;;;;;;12.55;100.00;102189.19;5070729;28;20470;-84
2021/09/01 05:29:39;;;;;;;38.72;21.02;;;;;;;12.69;100.00;102194.16;5072458;28;20117;-83
2021/09/01 05:32:06;;;;;;;37.63;21.50;;;;;;;12.66;100.00;102192.59;5038243;28;20100;-85
2021/09/01 05:34:31;;;;;;;40.45;22.58;;;;;;;12.62;100.00;102193.88;5071813;28;20102;-84
2021/09/01 05:36:58;;;;;;;49.63;23.23;;;;;;;12.70;100.00;102206.56;5072232;28;20036;-84
2021/09/01 05:39:24;;;;;;;;;;;;;;;12.82;100.00;102201.91;5073220;28;20052;-83
2021/09/01 05:41:50;;;;;;;;;;;;;;;12.74;100.00;102196.44;5056838;28;19916;-84
2021/09/01 05:44:15;;;;;;;;;;;;;;;12.79;100.00;102199.53;5056068;28;19916;-84
2021/09/01 05:46:41;;;;;;;;;;;;;;;12.74;100.00;102207.16;5068107;28;19945;-83
2021/09/01 05:49:06;;;;;;;38.00;19.70;;;;;;;12.60;100.00;102206.56;5078189;28;19908;-85
2021/09/01 05:51:34;;;;;;;44.42;20.65;;;;;;;12.66;100.00;102206.00;5057395;28;20155;-85
2021/09/01 05:53:59;;;;;;;39.58;22.90;;;;;;;12.83;100.00;102212.50;5074187;28;20068;-85
2021/09/01 05:56:34;;;;;;;35.73;20.77;;;;;;;12.89;100.00;102216.44;5055674;28;20048;-84
2021/09/01 05:59:06;;;;;;;36.92;20.45;;;;;;;12.91;100.00;102219.81;5054759;28;20410;-84
2021/09/01 06:01:37;;;;;;;36.72;20.85;;;;;;;12.96;100.00;102222.91;5054530;28;20044;-83
2021/09/01 06:04:07;;;;;;;37.00;20.15;;;;;;;13.06;100.00;102226.47;5054115;28;20505;-83
2021/09/01 06:06:37;;;;;;;33.42;19.13;;;;;;;13.04;100.00;102220.38;5080443;28;20084;-86
2021/09/01 06:09:03;;;;;;;29.70;17.27;;;;;;;13.05;100.00;102218.53;5075482;28;20040;-85
2021/09/01 06:11:29;;;;;;;30.98;17.73;;;;;;;13.15;100.00;102222.06;5079528;28;20056;-84
2021/09/01 06:13:55;;;;;;;43.28;19.25;;;;;;;13.14;100.00;102222.22;5072832;28;20047;-85
2021/09/01 06:16:21;;;;;;;31.70;18.40;;;;;;;13.11;100.00;102220.66;5056285;28;20119;-85
2021/09/01 06:18:46;;;;;;;28.02;17.77;;;;;;;13.14;100.00;102224.91;5073597;28;20539;-84
2021/09/01 06:21:12;;;;;;;33.42;19.20;;;;;;;13.26;100.00;102229.09;5056652;28;20051;-84
2021/09/01 06:23:38;;;;;;;32.10;17.50;;;;;;;13.46;100.00;102224.56;5056281;28;20066;-84
2021/09/01 06:26:03;;;;;;;23.77;15.23;;;;;;;13.35;100.00;102233.63;5056111;28;20879;-85
2021/09/01 06:28:29;;;;;;;28.70;16.27;;;;;;;13.16;100.00;102229.13;5056189;28;20028;-84
2021/09/01 06:30:54;;;;;;;30.07;17.63;;;;;;;13.22;100.00;102241.09;5055898;28;20051;-85
2021/09/01 06:33:19;;;;;;;30.03;16.07;;;;;;;13.41;100.00;102248.28;5072566;28;20043;-84
2021/09/01 06:35:47;;;;;;;28.60;17.57;;;;;;;13.29;100.00;102245.78;5055878;28;20121;-85
2021/09/01 06:38:12;;;;;;;35.47;17.60;;;;;;;13.51;100.00;102252.66;5039596;28;20029;-85
2021/09/01 06:40:37;;;;;;;26.17;16.00;;;;;;;13.78;100.00;102250.19;5055206;28;20094;-85
2021/09/01 06:43:03;;;;;;;25.43;16.67;;;;;;;13.76;100.00;102250.31;5055829;28;20028;-85
2021/09/01 06:45:28;;;;;;;26.57;16.20;;;;;;;13.94;100.00;102251.22;5055342;28;20453;-85
2021/09/01 06:47:53;;;;;;;23.20;16.37;;;;;;;14.04;100.00;102243.13;5073384;28;20032;-84
2021/09/01 06:50:22;;;;;;;25.00;16.90;;;;;;;14.30;100.00;102251.31;5072316;28;20032;-85
2021/09/01 06:52:48;;;;;;;27.30;16.05;;;;;;;14.60;100.00;102249.34;5072217;28;20028;-85
2021/09/01 06:55:14;;;;;;;23.27;13.95;;;;;;;14.66;98.90;102254.13;5071570;28;20643;-83
2021/09/01 06:57:40;;;;;;;24.55;14.57;;;;;;;14.46;97.80;102258.72;5071770;28;20026;-84
2021/09/01 07:00:08;;;;;;;17.95;12.52;;;;;;;14.58;98.76;102254.00;5071864;28;20082;-84
2021/09/01 07:02:34;;;;;;;21.15;13.82;;;;;;;14.38;99.39;102255.97;5054505;28;20036;-85
2021/09/01 07:05:00;;;;;;;24.25;14.77;;;;;;;14.52;100.00;102257.28;5054486;28;20363;-85
2021/09/01 07:07:25;;;;;;;19.17;13.23;;;;;;;14.48;99.40;102263.97;5054685;28;20062;-83
2021/09/01 07:09:51;;;;;;;19.23;14.63;;;;;;;14.51;99.55;102258.28;5071839;28;20052;-84
2021/09/01 07:12:16;;;;;;;22.23;15.50;;;;;;;14.61;98.85;102263.63;5055389;28;20028;-85
2021/09/01 07:14:42;;;;;;;22.37;13.63;;;;;;;14.76;98.64;102251.34;5070458;28;20686;-86
2021/09/01 07:17:07;;;;;;;22.67;14.43;;;;;;;14.74;96.58;102248.81;5054624;28;20174;-84
2021/09/01 07:19:32;;;;;;;24.80;13.23;;;;;;;14.77;95.75;102255.72;5054432;28;20147;-84
2021/09/01 07:21:58;;;;;;;19.87;13.13;;;;;;;14.80;95.56;102250.06;5054269;28;20044;-83
2021/09/01 07:24:23;;;;;;;24.50;15.23;;;;;;;14.85;95.27;102254.97;5054440;28;20041;-85
2021/09/01 07:26:48;;;;;;;19.57;13.63;;;;;;;15.18;94.79;102256.91;5070995;28;20025;-85
2021/09/01 07:29:14;;;;;;;21.90;14.30;;;;;;;15.93;92.76;102267.19;5054763;28;20522;-86
2021/09/01 07:31:39;;;;;;;20.33;13.80;;;;;;;16.35;89.87;102260.13;5054984;28;20044;-85
2021/09/01 07:34:05;;;;;;;18.03;12.43;;;;;;;16.27;89.51;102262.78;5071108;28;20051;-85
2021/09/01 07:36:30;;;;;;;19.20;12.93;;;;;;;16.43;88.51;102252.88;5054693;28;20097;-86
2021/09/01 07:38:55;;;;;;;17.00;11.77;;;;;;;16.79;86.90;102255.38;5054243;28;20025;-86
2021/09/01 07:41:21;;;;;;;14.33;9.87;;;;;;;17.82;85.04;102270.16;5071265;28;20029;-86
2021/09/01 07:43:46;;;;;;;12.63;9.67;;;;;;;18.24;82.24;102266.25;5037229;28;20041;-85
2021/09/01 07:46:11;;;;;;;19.33;10.57;;;;;;;18.73;79.67;102266.84;5070822;28;20509;-86
2021/09/01 07:48:37;;;;;;;15.37;10.30;;;;;;;19.38;75.58;102265.47;5055277;28;20024;-87
2021/09/01 07:51:35;;;;;;;16.87;9.80;;;;;;;19.48;76.24;102273.34;5052936;28;20036;-90
2021/09/01 07:54:01;;;;;;;12.02;8.30;;;;;;;19.09;75.63;102278.94;5037372;28;20041;-85
2021/09/01 07:56:27;;;;;;;13.93;10.25;;;;;;;18.64;76.21;102276.03;5055239;28;20108;-89
2021/09/01 07:58:52;;;;;;;10.40;8.13;;;;;;;18.52;79.83;102294.53;5070429;28;20044;-87
2021/09/01 08:01:17;;;;;;;14.63;8.60;;;;;;;19.26;76.24;102285.06;5057492;28;20037;-87
2021/09/01 08:03:43;;;;;;;12.63;9.83;;;;;;;18.85;75.17;102283.53;5073589;28;20477;-88
2021/09/01 08:06:08;;;;;;;13.40;10.63;;;;;;;17.99;79.26;102282.59;5073959;28;20633;-86
2021/09/01 08:08:34;;;;;;;20.23;13.10;;;;;;;17.45;81.19;102290.44;5073629;28;20096;-85
2021/09/01 08:11:00;;;;;;;;;;;;;;;18.02;81.33;102293.03;5074740;28;20029;-87
2021/09/01 08:13:25;;;;;;;;;;;;;;;19.04;78.26;102300.31;5040271;28;20042;-86
2021/09/01 08:15:51;;;;;;;12.83;10.20;;;;;;;19.54;75.50;102294.25;5074081;28;20031;-86
2021/09/01 08:18:35;;;;;;;12.30;9.60;;;;;;;20.74;73.42;102295.91;5055026;28;20032;-89
2021/09/01 08:21:00;;;;;;;12.40;8.85;;;;;;;21.05;70.14;102292.88;5074285;28;20048;-87
2021/09/01 08:23:26;;;;;;;14.77;10.67;;;;;;;20.95;69.03;102299.66;5042175;28;20036;-87
2021/09/01 08:25:51;;;;;;;13.40;10.23;;;;;;;19.76;72.67;102297.97;5060125;28;20619;-88
2021/09/01 08:28:16;;;;;;;13.87;9.33;;;;;;;20.84;71.73;102295.59;5062221;28;20032;-86
2021/09/01 08:30:42;;;;;;;15.00;10.10;;;;;;;21.20;68.53;102300.94;5076643;28;20036;-87
2021/09/01 08:33:08;;;;;;;10.37;7.73;;;;;;;21.11;70.48;102293.13;5059379;28;20031;-88
2021/09/01 08:35:35;;;;;;;17.27;8.55;;;;;;;21.56;68.51;102297.28;5043938;28;20062;-87
2021/09/01 08:38:01;;;;;;;17.13;10.10;;;;;;;21.96;66.54;102278.53;5076121;28;20032;-87
2021/09/01 08:40:26;;;;;;;12.70;8.83;;;;;;;22.33;65.85;102309.88;5075954;28;20130;-86
2021/09/01 08:42:51;;;;;;;13.23;8.57;;;;;;;21.04;68.66;102293.91;5077018;28;20048;-88
2021/09/01 08:45:17;;;;;;;11.50;8.53;;;;;;;22.25;66.68;102303.81;5075947;28;20113;-87
2021/09/01 08:47:43;;;;;;;13.00;8.93;;;;;;;22.56;64.62;102295.13;5074688;28;20032;-86
2021/09/01 08:50:11;;;;;;;13.30;8.77;;;;;;;22.46;64.44;102311.00;5075011;28;20059;-85
2021/09/01 08:52:38;;;;;;;12.10;8.98;;;;;;;22.59;64.22;102302.88;5063622;28;20300;-87
2021/09/01 08:55:08;;;;;;;12.77;9.23;;;;;;;23.04;64.13;102300.50;5056456;28;20032;-86
2021/09/01 08:57:34;;;;;;;12.15;9.15;;;;;;;23.00;63.05;102301.13;5057333;28;20119;-86
2021/09/01 09:00:00;;;;;;;15.48;8.40;;;;;;;22.84;64.34;102305.03;5075408;28;20028;-86
2021/09/01 09:02:27;;;;;;;12.57;8.75;;;;;;;22.89;63.83;102311.53;5066961;28;20105;-85
2021/09/01 09:05:03;;;;;;;13.40;10.80;;;;;;;22.40;65.25;102306.38;5074732;28;20036;-86
2021/09/01 09:07:29;;;;;;;10.90;7.35;;;;;;;23.05;62.83;102310.34;5058472;28;20046;-86
2021/09/01 09:09:54;;;;;;;11.13;7.90;;;;;;;23.18;64.47;102307.63;5055238;28;20116;-85
2021/09/01 09:12:30;;;;;;;15.23;7.93;;;;;;;23.93;62.57;102303.81;5050364;28;20047;-85
2021/09/01 09:14:56;;;;;;;10.60;8.18;;;;;;;24.29;59.38;102308.72;5052772;28;20413;-86
2021/09/01 09:17:22;;;;;;;10.85;7.55;;;;;;;24.33;60.26;102307.22;5052736;28;20035;-88
2021/09/01 09:19:50;;;;;;;11.47;6.60;;;;;;;24.18;61.14;102301.19;5056176;28;20032;-85
2021/09/01 09:22:20;;;;;;;9.77;6.55;;;;;;;24.04;61.29;102302.28;5057382;28;20428;-86
2021/09/01 09:25:21;;;;;;;8.38;6.30;;;;;;;24.90;60.86;102301.91;5058022;28;20717;-81
2021/09/01 09:27:49;;;;;;;15.88;6.97;;;;;;;25.47;55.68;102290.94;5047402;28;20044;-82
2021/09/01 09:30:21;;;;;;;8.82;5.63;;;;;;;25.08;56.59;102303.88;5071544;28;20024;-87
2021/09/01 09:33:10;;;;;;;9.25;6.07;;;;;;;25.17;57.71;102308.00;5054190;28;20048;-84
2021/09/01 09:35:46;;;;;;;7.90;5.10;;;;;;;25.46;57.58;102300.22;5054867;28;20032;-86
2021/09/01 09:38:12;;;;;;;7.50;5.55;;;;;;;25.44;57.58;102296.88;5070839;28;20037;-85
2021/09/01 09:40:38;;;;;;;7.00;4.57;;;;;;;25.30;57.27;102314.47;5054850;28;20154;-85
2021/09/01 09:43:21;;;;;;;10.80;5.20;;;;;;;25.20;56.21;102302.13;5054056;28;20512;-85
2021/09/01 09:45:48;;;;;;;8.50;4.40;;;;;;;25.73;55.61;102306.28;5054047;28;20123;-81
2021/09/01 09:48:14;;;;;;;9.10;5.10;;;;;;;24.55;58.66;102306.94;5036475;28;20059;-84
2021/09/01 09:50:47;;;;;;;8.93;5.20;;;;;;;24.56;58.97;102312.19;5068769;28;20071;-87
2021/09/01 09:53:27;;;;;;;8.32;4.35;;;;;;;25.00;54.53;102307.69;5054910;28;20076;-86
2021/09/01 09:56:13;;;;;;;10.60;5.18;;;;;;;24.64;57.41;102313.81;5052444;28;20481;-85
2021/09/01 09:58:42;;;;;;;7.13;4.13;;;;;;;25.06;58.08;102316.94;5054404;28;20127;-85
2021/09/01 10:01:10;;;;;;;5.70;4.07;;;;;;;25.32;55.61;102310.44;5052898;28;20830;-85
2021/09/01 10:03:38;;;;;;;7.70;3.92;;;;;;;25.69;54.47;102308.63;5052069;28;20477;-87
2021/09/01 10:06:06;;;;;;;8.23;5.30;;;;;;;25.43;55.79;102308.88;5052330;28;20059;-87
2021/09/01 10:08:33;;;;;;;6.32;4.18;;;;;;;25.73;55.82;102316.38;5051880;28;20032;-85
2021/09/01 10:11:01;;;;;;;8.48;4.82;;;;;;;25.94;54.83;102317.84;5051898;28;20036;-87
2021/09/01 10:13:28;;;;;;;8.40;4.63;;;;;;;25.63;53.38;102317.72;5052198;28;20028;-83
2021/09/01 10:15:59;;;;;;;8.32;4.63;;;;;;;25.60;54.20;102314.59;5051531;28;20465;-87
2021/09/01 10:18:26;;;;;;;8.15;4.47;;;;;;;25.85;54.47;102315.41;5051738;28;20517;-87
2021/09/01 10:20:53;;;;;;;6.03;4.10;;;;;;;25.92;54.40;102315.38;5052059;28;20029;-87
2021/09/01 10:23:34;;;;;;;;;;;;;;;26.27;52.40;102314.72;5035377;28;20043;-87
2021/09/01 10:25:59;;;;;;;5.57;3.70;;;;;;;26.20;52.89;102322.19;5050522;28;19958;-87
2021/09/01 10:28:28;;;;;;;5.67;4.20;;;;;;;26.21;52.53;102312.94;5035047;28;20066;-86
2021/09/01 10:31:08;;;;;;;6.30;3.80;;;;;;;26.47;51.11;102306.25;5051094;28;20405;-85
2021/09/01 10:33:35;;;;;;;7.78;4.32;;;;;;;26.03;51.51;102298.16;5067690;28;20090;-87
2021/09/01 10:36:26;;;;;;;7.72;4.40;;;;;;;25.42;52.29;102304.47;5034645;28;20032;-87
2021/09/01 10:39:17;;;;;;;6.28;4.18;;;;;;;26.40;50.54;102306.34;5051853;28;20058;-84
2021/09/01 10:41:44;;;;;;;6.35;3.70;;;;;;;26.81;49.27;102307.50;5035365;28;20078;-87
2021/09/01 10:44:44;;;;;;;8.75;3.95;;;;;;;26.33;49.46;102308.34;5050885;28;20046;-84
2021/09/01 10:47:09;;;;;;;6.85;4.32;;;;;;;26.23;50.49;102299.84;5050832;28;20036;-86
2021/09/01 10:49:53;;;;;;;4.67;3.77;;;;;;;26.71;48.79;102312.69;5051051;28;20433;-87
2021/09/01 10:52:19;;;;;;;5.47;4.45;;;;;;;26.85;48.92;102300.47;5051274;28;20338;-87
2021/09/01 10:54:45;;;;;;;6.70;4.07;;;;;;;26.42;49.76;102300.66;5033799;28;20028;-85
2021/09/01 10:57:27;;;;;;;7.07;4.68;;;;;;;26.62;51.60;102308.59;5051583;28;20036;-86
2021/09/01 11:00:14;;;;;;;5.88;3.25;;;;;;;27.65;48.19;102303.81;5051017;28;20034;-87
2021/09/01 11:02:50;;;;;;;5.17;3.57;;;;;;;27.14;49.19;102306.16;5050551;28;20331;-86
2021/09/01 11:05:22;;;;;;;6.03;3.58;;;;;;;26.52;50.04;102293.53;5050171;28;20878;-84
2021/09/01 11:07:55;;;;;;;7.68;3.60;;;;;;;26.91;48.82;102285.84;5069042;28;20543;-86
2021/09/01 11:10:28;;;;;;;5.00;3.67;;;;;;;26.16;51.11;102261.59;5051381;28;20041;-85
2021/09/01 11:13:00;;;;;;;5.70;3.85;;;;;;;26.93;48.79;102302.06;5068102;28;20033;-86